Aviation Digital Data Service (ADDS)

Output produced by TAFs form (0133 UTC 20 December 2014)
found at http://aviationweather.gov/adds/tafs/
 
KTUS 192330Z 2000/2024 35005KT P6SM SCT250 
     FM200600 14005KT P6SM BKN250 
     FM202000 35005KT P6SM SCT250